createdAt,value
2017-09-20T00:00:48.977Z,127.95
2017-09-20T00:01:51.455Z,134.45
2017-09-20T00:02:54.863Z,153.32
2017-09-20T00:03:58.564Z,133.65
2017-09-20T00:05:01.055Z,127.07
2017-09-20T00:06:03.542Z,142.15
2017-09-20T00:07:06.027Z,139.60
2017-09-20T00:08:09.279Z,146.37
2017-09-20T00:09:11.783Z,125.72
2017-09-20T00:10:15.040Z,141.45
2017-09-20T00:11:17.606Z,135.20
2017-09-20T00:12:20.084Z,136.05
2017-09-20T00:13:22.683Z,145.45
2017-09-20T00:14:25.172Z,134.35
2017-09-20T00:15:27.820Z,145.90
2017-09-20T00:16:30.382Z,139.05
2017-09-20T00:17:32.976Z,139.98
2017-09-20T00:18:36.492Z,139.62
2017-09-20T00:19:39.108Z,148.93
2017-09-20T00:20:41.614Z,137.85
2017-09-20T00:21:44.122Z,135.82
2017-09-20T00:22:48.884Z,147.10
2017-09-20T00:23:51.390Z,126.53
2017-09-20T00:24:54.743Z,157.23
2017-09-20T00:25:57.276Z,152.73
2017-09-20T00:26:59.845Z,149.40
2017-09-20T00:28:03.023Z,164.10
2017-09-20T00:29:05.520Z,169.10
2017-09-20T00:30:07.997Z,191.60
2017-09-20T00:31:10.501Z,170.02
2017-09-20T00:32:13.778Z,177.75
2017-09-20T00:33:17.132Z,156.48
2017-09-20T00:34:21.298Z,161.95
2017-09-20T00:35:23.862Z,159.57
2017-09-20T00:36:26.337Z,134.27
2017-09-20T00:37:28.851Z,154.35
2017-09-20T00:38:31.364Z,163.50
2017-09-20T00:39:33.850Z,134.10
2017-09-20T00:40:36.329Z,162.07
2017-09-20T00:41:39.596Z,155.05
2017-09-20T00:42:42.093Z,160.00
2017-09-20T00:43:44.580Z,161.73
2017-09-20T00:44:47.855Z,154.18
2017-09-20T00:45:50.315Z,120.78
2017-09-20T00:46:53.573Z,125.55
2017-09-20T00:47:57.872Z,136.40
2017-09-20T00:49:00.369Z,141.48
2017-09-20T00:50:02.968Z,133.65
2017-09-20T00:51:05.450Z,139.65
2017-09-20T00:52:08.053Z,141.10
2017-09-20T00:53:10.535Z,148.68
2017-09-20T00:54:13.848Z,140.20
2017-09-20T00:55:16.334Z,141.18
2017-09-20T00:56:18.843Z,142.90
2017-09-20T00:57:21.347Z,138.80
2017-09-20T00:58:23.823Z,146.27
2017-09-20T00:59:26.379Z,142.50
2017-09-20T01:00:28.893Z,137.73
2017-09-20T01:01:31.385Z,136.62
2017-09-20T01:02:34.763Z,140.05
2017-09-20T01:03:38.033Z,123.75
2017-09-20T01:04:41.283Z,127.28
2017-09-20T01:05:43.795Z,119.10
2017-09-20T01:06:46.394Z,120.45
2017-09-20T01:07:48.883Z,131.82
2017-09-20T01:08:51.386Z,139.18
2017-09-20T01:09:53.995Z,123.80
2017-09-20T01:10:57.424Z,140.48
2017-09-20T01:12:00.105Z,146.85
2017-09-20T01:13:02.588Z,146.52
2017-09-20T01:14:06.288Z,138.55
2017-09-20T01:15:09.902Z,149.05
2017-09-20T01:16:12.393Z,136.07
2017-09-20T01:17:14.932Z,132.80
2017-09-20T01:18:17.416Z,163.10
2017-09-20T01:19:19.889Z,161.68
2017-09-20T01:20:34.423Z,140.68
2017-09-20T01:21:48.623Z,144.10
2017-09-20T01:24:28.773Z,147.82
2017-09-20T01:25:32.036Z,140.45
2017-09-20T01:26:34.529Z,121.78
2017-09-20T01:27:37.778Z,134.27
2017-09-20T01:28:40.348Z,136.98
2017-09-20T01:29:44.348Z,150.10
2017-09-20T01:30:46.869Z,147.93
2017-09-20T01:31:49.349Z,157.48
2017-09-20T01:32:51.896Z,144.55
2017-09-20T01:33:54.370Z,157.75
2017-09-20T01:34:56.847Z,167.68
2017-09-20T01:35:59.339Z,122.82
2017-09-20T01:37:01.950Z,148.70
2017-09-20T01:38:04.436Z,149.23
2017-09-20T01:39:06.937Z,142.93
2017-09-20T01:40:09.518Z,160.35
2017-09-20T01:41:12.788Z,150.38
2017-09-20T01:42:15.305Z,152.10
2017-09-20T01:43:17.789Z,185.68
2017-09-20T01:44:20.279Z,149.95
2017-09-20T01:45:22.756Z,149.95
2017-09-20T01:46:26.020Z,156.50
2017-09-20T01:47:28.511Z,179.87
2017-09-20T01:48:30.987Z,170.00
2017-09-20T01:49:34.302Z,173.40
2017-09-20T01:50:36.913Z,176.73
2017-09-20T01:51:39.436Z,189.27
2017-09-20T01:52:41.994Z,206.75
2017-09-20T01:53:44.514Z,155.55
2017-09-20T01:54:47.079Z,169.95
2017-09-20T01:55:49.559Z,165.12
2017-09-20T01:56:52.879Z,146.15
2017-09-20T01:57:55.352Z,187.70
2017-09-20T01:58:57.929Z,178.87
2017-09-20T02:00:00.420Z,144.57
2017-09-20T02:01:02.903Z,133.50
2017-09-20T02:02:06.176Z,122.50
2017-09-20T02:03:10.181Z,144.25
2017-09-20T02:04:12.791Z,123.93
2017-09-20T02:05:15.359Z,143.95
2017-09-20T02:06:17.843Z,123.30
2017-09-20T02:07:20.337Z,119.80
2017-09-20T02:08:23.315Z,129.52
2017-09-20T02:09:25.829Z,133.95
2017-09-20T02:10:28.319Z,137.88
2017-09-20T02:11:30.876Z,141.00
2017-09-20T02:12:33.361Z,127.62
2017-09-20T02:13:35.880Z,120.30
2017-09-20T02:14:40.147Z,109.47
2017-09-20T02:15:42.628Z,130.37
2017-09-20T02:16:45.884Z,108.10
2017-09-20T02:17:48.365Z,110.97
2017-09-20T02:18:50.875Z,116.65
2017-09-20T02:19:53.351Z,128.30
2017-09-20T02:20:55.940Z,112.30
2017-09-20T02:21:58.415Z,137.45
2017-09-20T02:23:00.917Z,118.15
2017-09-20T02:24:04.167Z,112.60
2017-09-20T02:25:06.649Z,124.00
2017-09-20T02:26:09.144Z,132.68
2017-09-20T02:27:11.628Z,120.93
2017-09-20T02:28:14.168Z,106.53
2017-09-20T02:29:17.437Z,112.75
2017-09-20T02:30:20.748Z,111.03
2017-09-20T02:31:23.242Z,106.40
2017-09-20T02:32:25.715Z,103.80
2017-09-20T02:33:28.201Z,122.68
2017-09-20T02:34:30.677Z,96.30
2017-09-20T02:35:33.926Z,112.40
2017-09-20T02:36:36.440Z,98.72
2017-09-20T02:37:39.692Z,99.45
2017-09-20T02:38:42.186Z,106.28
2017-09-20T02:39:45.453Z,116.28
2017-09-20T02:40:47.951Z,94.03
2017-09-20T02:41:50.462Z,103.00
2017-09-20T02:42:52.938Z,111.93
2017-09-20T02:43:56.953Z,126.57
2017-09-20T02:45:00.216Z,119.35
2017-09-20T02:46:02.697Z,102.22
2017-09-20T02:47:05.956Z,111.90
2017-09-20T02:48:08.468Z,101.55
2017-09-20T02:49:11.703Z,95.85
2017-09-20T02:50:14.193Z,113.60
2017-09-20T02:51:16.795Z,118.15
2017-09-20T02:52:19.365Z,104.18
2017-09-20T02:53:21.929Z,108.90
2017-09-20T02:54:24.805Z,118.00
2017-09-20T02:55:27.383Z,98.35
2017-09-20T02:56:29.923Z,103.05
2017-09-20T02:57:33.165Z,93.50
2017-09-20T02:58:35.643Z,85.65
2017-09-20T02:59:38.155Z,87.10
2017-09-20T03:00:41.442Z,91.63
2017-09-20T03:01:43.939Z,76.47
2017-09-20T03:02:46.439Z,78.70
2017-09-20T03:03:49.691Z,89.30
2017-09-20T03:04:52.163Z,90.45
2017-09-20T03:05:54.782Z,93.07
2017-09-20T03:06:57.268Z,80.03
2017-09-20T03:07:59.786Z,76.40
2017-09-20T03:09:03.033Z,83.32
2017-09-20T03:10:05.510Z,91.10
2017-09-20T03:11:07.998Z,81.50
2017-09-20T03:12:11.264Z,81.40
2017-09-20T03:13:13.874Z,79.93
2017-09-20T03:14:16.475Z,75.70
2017-09-20T03:15:18.967Z,73.05
2017-09-20T03:16:21.492Z,70.62
2017-09-20T03:17:24.039Z,75.82
2017-09-20T03:18:26.545Z,77.22
2017-09-20T03:19:29.052Z,69.07
2017-09-20T03:20:32.492Z,71.45
2017-09-20T03:21:35.046Z,74.32
2017-09-20T03:22:37.562Z,85.82
2017-09-20T03:23:40.048Z,66.32
2017-09-20T03:24:42.709Z,64.65
2017-09-20T03:25:45.944Z,68.40
2017-09-20T03:26:48.446Z,68.15
2017-09-20T03:27:51.704Z,65.22
2017-09-20T03:28:54.189Z,74.35
2017-09-20T03:29:57.450Z,71.87
2017-09-20T03:31:00.066Z,70.80
2017-09-20T03:32:02.572Z,66.95
2017-09-20T03:33:05.088Z,82.32
2017-09-20T03:34:08.395Z,69.57
2017-09-20T03:35:10.908Z,69.95
2017-09-20T03:36:13.383Z,74.40
2017-09-20T03:37:16.647Z,73.72
2017-09-20T03:38:19.132Z,64.65
2017-09-20T03:39:22.419Z,71.40
2017-09-20T03:40:25.733Z,75.90
2017-09-20T03:41:28.211Z,65.90
2017-09-20T03:42:30.699Z,66.00
2017-09-20T03:43:33.329Z,67.75
2017-09-20T03:44:35.812Z,82.45
2017-09-20T03:45:38.327Z,61.33
2017-09-20T03:46:40.825Z,68.22
2017-09-20T03:47:43.396Z,72.50
2017-09-20T03:48:45.962Z,71.18
2017-09-20T03:49:48.439Z,71.10
2017-09-20T03:50:50.939Z,70.65
2017-09-20T03:51:53.423Z,65.43
2017-09-20T03:52:56.701Z,60.53
2017-09-20T03:53:59.179Z,66.10
2017-09-20T03:55:02.441Z,60.83
2017-09-20T03:56:05.003Z,59.63
2017-09-20T03:57:07.481Z,56.85
2017-09-20T03:58:09.999Z,58.10
2017-09-20T03:59:12.514Z,53.85
2017-09-20T04:00:15.429Z,59.97
2017-09-20T04:01:17.903Z,55.72
2017-09-20T04:02:20.467Z,62.22
2017-09-20T04:03:22.940Z,56.08
2017-09-20T04:04:25.612Z,63.55
2017-09-20T04:05:28.117Z,55.85
2017-09-20T04:06:30.622Z,55.53
2017-09-20T04:07:33.111Z,57.80
2017-09-20T04:08:36.600Z,56.15
2017-09-20T04:09:39.116Z,51.78
2017-09-20T04:10:42.391Z,59.25
2017-09-20T04:11:44.889Z,42.70
2017-09-20T04:12:47.456Z,49.20
2017-09-20T04:13:50.031Z,51.78
2017-09-20T04:14:52.544Z,51.17
2017-09-20T04:15:55.023Z,53.72
2017-09-20T04:16:58.873Z,54.10
2017-09-20T04:18:01.348Z,51.70
2017-09-20T04:19:03.920Z,47.10
2017-09-20T04:20:06.415Z,46.33
2017-09-20T04:21:08.923Z,45.70
2017-09-20T04:22:11.403Z,52.20
2017-09-20T04:23:13.914Z,51.37
2017-09-20T04:24:16.411Z,52.78
2017-09-20T04:25:18.895Z,54.75
2017-09-20T04:26:21.395Z,51.92
2017-09-20T04:27:24.896Z,45.28
2017-09-20T04:28:27.616Z,49.90
2017-09-20T04:29:30.113Z,53.97
2017-09-20T04:30:32.607Z,47.70
2017-09-20T04:31:35.897Z,45.97
2017-09-20T04:32:39.622Z,47.20
2017-09-20T04:33:42.139Z,46.35
2017-09-20T04:34:44.703Z,45.35
2017-09-20T04:35:47.974Z,46.67
2017-09-20T04:36:50.491Z,44.47
2017-09-20T04:37:52.967Z,49.67
2017-09-20T04:38:55.477Z,53.05
2017-09-20T04:39:58.092Z,53.70
2017-09-20T04:41:00.592Z,43.75
2017-09-20T04:42:03.115Z,49.13
2017-09-20T04:43:05.637Z,45.38
2017-09-20T04:44:08.155Z,52.92
2017-09-20T04:45:10.675Z,47.92
2017-09-20T04:46:13.184Z,49.65
2017-09-20T04:47:15.668Z,42.17
2017-09-20T04:48:18.172Z,48.15
2017-09-20T04:49:20.688Z,55.63
2017-09-20T04:50:23.168Z,54.17
2017-09-20T04:51:25.668Z,51.05
2017-09-20T04:52:28.503Z,50.55
2017-09-20T04:53:31.021Z,46.70
2017-09-20T04:54:33.618Z,48.70
2017-09-20T04:55:36.102Z,51.65
2017-09-20T04:56:38.612Z,43.08
2017-09-20T04:57:41.125Z,49.17
2017-09-20T04:58:43.615Z,51.47
2017-09-20T04:59:46.091Z,43.25
2017-09-20T05:00:54.237Z,50.00
2017-09-20T05:01:56.806Z,51.58
2017-09-20T05:02:59.327Z,51.20
2017-09-20T05:04:01.837Z,51.67
2017-09-20T05:05:04.405Z,52.08
2017-09-20T05:06:06.971Z,56.50
2017-09-20T05:07:09.495Z,49.53
2017-09-20T05:08:12.005Z,53.97
2017-09-20T05:09:14.482Z,45.85
2017-09-20T05:10:16.968Z,51.15
2017-09-20T05:11:19.549Z,55.47
2017-09-20T05:12:22.039Z,59.10
2017-09-20T05:13:25.312Z,49.13
2017-09-20T05:14:28.128Z,60.05
2017-09-20T05:15:30.651Z,56.97
2017-09-20T05:16:33.215Z,53.78
2017-09-20T05:17:35.699Z,53.20
2017-09-20T05:18:38.959Z,53.35
2017-09-20T05:19:41.454Z,53.00
2017-09-20T05:20:44.826Z,58.28
2017-09-20T05:21:48.255Z,59.25
2017-09-20T05:22:50.787Z,53.35
2017-09-20T05:23:54.114Z,54.92
2017-09-20T05:24:56.612Z,55.40
2017-09-20T05:25:59.181Z,52.47
2017-09-20T05:27:01.697Z,45.25
2017-09-20T05:28:04.286Z,49.38
2017-09-20T05:29:06.827Z,60.20
2017-09-20T05:30:12.911Z,68.87
2017-09-20T05:31:15.446Z,60.55
2017-09-20T05:32:17.955Z,36.08
2017-09-20T05:33:20.458Z,56.88
2017-09-20T05:34:23.111Z,59.92
2017-09-20T05:35:26.429Z,59.20
2017-09-20T05:36:29.115Z,56.75
2017-09-20T05:37:31.618Z,59.42
2017-09-20T05:38:34.103Z,64.32
2017-09-20T05:39:37.397Z,57.60
2017-09-20T05:40:39.881Z,73.80
2017-09-20T05:41:42.436Z,59.72
2017-09-20T05:42:45.016Z,53.13
2017-09-20T05:43:47.495Z,59.85
2017-09-20T05:44:51.027Z,60.65
2017-09-20T05:45:54.285Z,43.15
2017-09-20T05:46:56.808Z,56.25
2017-09-20T05:47:59.308Z,54.15
2017-09-20T05:49:01.791Z,59.72
2017-09-20T05:50:04.429Z,68.40
2017-09-20T05:51:07.019Z,61.42
2017-09-20T05:52:09.507Z,57.42
2017-09-20T05:53:12.774Z,59.42
2017-09-20T05:54:15.294Z,59.45
2017-09-20T05:55:24.560Z,53.63
2017-09-20T05:56:32.270Z,50.28
2017-09-20T05:57:35.611Z,51.25
2017-09-20T05:58:38.116Z,49.50
2017-09-20T05:59:40.970Z,53.50
2017-09-20T06:00:43.444Z,46.90
2017-09-20T06:01:46.896Z,46.08
2017-09-20T06:02:49.469Z,50.78
2017-09-20T06:03:52.090Z,43.25
2017-09-20T06:04:54.659Z,33.45
2017-09-20T06:05:57.963Z,47.60
2017-09-20T06:07:00.499Z,52.47
2017-09-20T06:08:03.029Z,48.53
2017-09-20T06:09:06.496Z,47.75
2017-09-20T06:10:09.057Z,36.70
2017-09-20T06:11:12.249Z,43.42
2017-09-20T06:12:14.869Z,44.55
2017-09-20T06:13:21.021Z,53.63
2017-09-20T06:14:24.355Z,49.45
2017-09-20T06:15:27.011Z,50.33
2017-09-20T06:16:30.048Z,50.47
2017-09-20T06:17:32.602Z,47.58
2017-09-20T06:18:36.323Z,49.67
2017-09-20T06:19:38.846Z,42.78
2017-09-20T06:20:41.357Z,46.90
2017-09-20T06:21:44.695Z,49.88
2017-09-20T06:22:47.194Z,48.45
2017-09-20T06:23:50.466Z,44.55
2017-09-20T06:24:53.177Z,50.20
2017-09-20T06:25:55.680Z,49.38
2017-09-20T06:26:58.270Z,38.67
2017-09-20T06:28:00.787Z,45.05
2017-09-20T06:29:03.322Z,47.10
2017-09-20T06:30:07.407Z,47.62
2017-09-20T06:31:09.980Z,50.80
2017-09-20T06:32:13.313Z,49.85
2017-09-20T06:33:15.820Z,43.03
2017-09-20T06:34:18.299Z,51.00
2017-09-20T06:35:21.571Z,44.95
2017-09-20T06:36:24.184Z,35.25
2017-09-20T06:37:26.672Z,40.30
2017-09-20T06:38:29.169Z,41.08
2017-09-20T06:39:31.643Z,42.33
2017-09-20T06:40:35.025Z,40.12
2017-09-20T06:41:37.541Z,47.03
2017-09-20T06:42:40.221Z,37.58
2017-09-20T06:43:42.705Z,44.30
2017-09-20T06:44:45.207Z,47.47
2017-09-20T06:45:48.468Z,37.50
2017-09-20T06:46:51.006Z,39.38
2017-09-20T06:47:53.498Z,45.60
2017-09-20T06:48:56.111Z,33.25
2017-09-20T06:49:58.603Z,34.38
2017-09-20T06:51:01.098Z,37.60
2017-09-20T06:52:04.376Z,37.67
2017-09-20T06:53:06.957Z,39.00
2017-09-20T06:54:09.469Z,42.90
2017-09-20T06:55:11.996Z,45.20
2017-09-20T06:56:15.280Z,41.85
2017-09-20T06:57:19.227Z,41.80
2017-09-20T06:58:21.720Z,36.60
2017-09-20T06:59:24.214Z,36.55
2017-09-20T07:00:27.570Z,37.78
2017-09-20T07:01:30.163Z,31.33
2017-09-20T07:02:33.506Z,36.45
2017-09-20T07:03:35.992Z,43.45
2017-09-20T07:04:38.604Z,39.33
2017-09-20T07:05:41.106Z,34.20
2017-09-20T07:06:43.637Z,36.92
2017-09-20T07:07:46.132Z,36.20
2017-09-20T07:08:48.644Z,38.30
2017-09-20T07:09:51.880Z,44.55
2017-09-20T07:10:54.363Z,39.78
2017-09-20T07:11:56.898Z,40.33
2017-09-20T07:12:59.371Z,37.25
2017-09-20T07:14:01.883Z,35.83
2017-09-20T07:15:05.177Z,32.25
2017-09-20T07:16:08.423Z,37.60
2017-09-20T07:17:10.937Z,36.33
2017-09-20T07:18:13.511Z,35.92
2017-09-20T07:19:15.990Z,35.20
2017-09-20T07:20:18.495Z,35.63
2017-09-20T07:21:21.008Z,40.17
2017-09-20T07:22:23.627Z,48.28
2017-09-20T07:23:26.141Z,36.15
2017-09-20T07:24:28.622Z,40.58
2017-09-20T07:25:31.224Z,41.80
2017-09-20T07:26:33.808Z,35.47
2017-09-20T07:27:36.290Z,41.37
2017-09-20T07:28:39.565Z,38.78
2017-09-20T07:29:42.977Z,40.85
2017-09-20T07:30:45.482Z,32.83
2017-09-20T07:31:48.002Z,42.90
2017-09-20T07:32:50.488Z,32.53
2017-09-20T07:33:52.978Z,33.13
2017-09-20T07:34:57.448Z,30.00
2017-09-20T07:36:00.020Z,37.17
2017-09-20T07:37:02.632Z,38.95
2017-09-20T07:38:05.167Z,38.88
2017-09-20T07:39:07.667Z,34.95
2017-09-20T07:40:10.368Z,28.10
2017-09-20T07:41:13.630Z,32.85
2017-09-20T07:42:16.136Z,37.85
2017-09-20T07:43:18.665Z,35.10
2017-09-20T07:44:21.927Z,38.35
2017-09-20T07:45:24.444Z,39.00
2017-09-20T07:46:26.922Z,36.92
2017-09-20T07:47:29.417Z,33.95
2017-09-20T07:48:32.047Z,37.97
2017-09-20T07:49:34.535Z,44.22
2017-09-20T07:50:37.021Z,36.88
2017-09-20T07:51:39.521Z,31.60
2017-09-20T07:52:42.796Z,21.55
2017-09-20T07:53:46.116Z,37.40
2017-09-20T07:54:48.597Z,42.05
2017-09-20T07:55:51.085Z,32.25
2017-09-20T07:56:53.580Z,36.83
2017-09-20T07:57:57.044Z,32.60
2017-09-20T07:58:59.537Z,27.52
2017-09-20T08:00:02.818Z,48.58
2017-09-20T08:01:06.064Z,44.30
2017-09-20T08:02:08.569Z,39.85
2017-09-20T08:03:11.851Z,32.25
2017-09-20T08:04:15.107Z,37.72
2017-09-20T08:05:17.593Z,35.10
2017-09-20T08:06:20.192Z,40.85
2017-09-20T08:07:22.679Z,35.78
2017-09-20T08:08:25.494Z,36.22
2017-09-20T08:09:28.122Z,29.70
2017-09-20T08:10:30.629Z,38.60
2017-09-20T08:11:33.185Z,33.45
2017-09-20T08:12:35.675Z,36.83
2017-09-20T08:13:38.975Z,44.38
2017-09-20T08:14:41.544Z,34.67
2017-09-20T08:15:44.068Z,33.80
2017-09-20T08:16:46.698Z,38.78
2017-09-20T08:17:49.354Z,41.20
2017-09-20T08:18:51.851Z,36.85
2017-09-20T08:19:56.951Z,33.78
2017-09-20T08:20:59.451Z,38.65
2017-09-20T08:22:02.011Z,33.15
2017-09-20T08:23:04.512Z,37.22
2017-09-20T08:24:07.784Z,35.25
2017-09-20T08:25:10.304Z,39.92
2017-09-20T08:26:12.781Z,36.20
2017-09-20T08:27:15.284Z,35.10
2017-09-20T08:28:17.759Z,45.58
2017-09-20T08:29:21.005Z,51.50
2017-09-20T08:30:23.547Z,41.97
2017-09-20T08:31:26.031Z,42.95
2017-09-20T08:32:28.532Z,36.60
2017-09-20T08:33:31.798Z,43.72
2017-09-20T08:34:34.412Z,42.28
2017-09-20T08:35:36.923Z,38.22
2017-09-20T08:36:39.424Z,37.60
2017-09-20T08:37:42.689Z,38.03
2017-09-20T08:38:46.683Z,27.92
2017-09-20T08:39:49.174Z,27.87
2017-09-20T08:40:51.760Z,35.70
2017-09-20T08:41:54.299Z,28.17
2017-09-20T08:42:57.551Z,37.28
2017-09-20T08:44:00.135Z,29.45
2017-09-20T08:45:02.715Z,33.33
2017-09-20T08:46:05.987Z,30.73
2017-09-20T08:47:08.531Z,28.87
2017-09-20T08:48:11.067Z,38.83
2017-09-20T08:49:13.568Z,34.38
2017-09-20T08:50:16.227Z,47.35
2017-09-20T08:51:18.749Z,19.27
2017-09-20T08:52:21.262Z,26.02
2017-09-20T08:53:23.811Z,33.30
2017-09-20T08:54:26.324Z,28.60
2017-09-20T08:55:28.836Z,36.58
2017-09-20T08:56:31.447Z,33.25
2017-09-20T08:57:34.058Z,29.98
2017-09-20T08:58:36.568Z,25.80
2017-09-20T08:59:39.040Z,22.73
2017-09-20T09:00:41.568Z,28.60
2017-09-20T09:01:44.081Z,28.83
2017-09-20T09:02:46.596Z,27.75
2017-09-20T09:03:49.084Z,26.85
2017-09-20T09:04:51.586Z,16.23
2017-09-20T09:05:54.081Z,24.42
2017-09-20T09:06:56.681Z,19.80
2017-09-20T09:07:59.207Z,20.05
2017-09-20T09:09:01.699Z,27.45
2017-09-20T09:10:04.208Z,30.60
2017-09-20T09:11:06.715Z,24.98
2017-09-20T09:12:09.317Z,27.08
2017-09-20T09:13:11.801Z,21.02
2017-09-20T09:14:14.442Z,23.55
2017-09-20T09:15:16.925Z,28.73
2017-09-20T09:16:19.411Z,31.98
2017-09-20T09:17:22.673Z,26.30
2017-09-20T09:18:26.670Z,27.70
2017-09-20T09:19:29.164Z,28.55
2017-09-20T09:20:32.426Z,29.48
2017-09-20T09:21:34.915Z,33.10
2017-09-20T09:22:38.224Z,26.37
2017-09-20T09:23:40.740Z,30.35
2017-09-20T09:24:43.269Z,24.60
2017-09-20T09:25:45.935Z,31.52
2017-09-20T09:26:48.416Z,33.67
2017-09-20T09:27:50.986Z,29.27
2017-09-20T09:28:53.686Z,33.28
2017-09-20T09:29:56.992Z,34.45
2017-09-20T09:31:02.282Z,27.08
2017-09-20T09:32:04.890Z,27.90
2017-09-20T09:33:10.182Z,36.88
2017-09-20T09:34:12.796Z,37.08
2017-09-20T09:35:16.297Z,29.63
2017-09-20T09:36:18.915Z,32.33
2017-09-20T09:37:21.810Z,27.98
2017-09-20T09:38:25.198Z,26.73
2017-09-20T09:39:29.862Z,32.75
2017-09-20T09:40:32.629Z,35.55
2017-09-20T09:41:35.226Z,25.62
2017-09-20T09:42:37.744Z,33.38
2017-09-20T09:43:40.226Z,35.65
2017-09-20T09:44:42.748Z,30.80
2017-09-20T09:45:46.318Z,30.50
2017-09-20T09:46:48.796Z,21.65
2017-09-20T09:47:51.303Z,29.58
2017-09-20T09:48:53.877Z,22.85
2017-09-20T09:49:56.537Z,30.25
2017-09-20T09:50:59.042Z,35.33
2017-09-20T09:52:01.524Z,35.35
2017-09-20T09:53:04.034Z,27.98
2017-09-20T09:54:06.556Z,27.95
2017-09-20T09:55:09.085Z,26.77
2017-09-20T09:56:11.675Z,20.88
2017-09-20T09:57:14.347Z,32.85
2017-09-20T09:58:16.920Z,32.25
2017-09-20T09:59:19.416Z,31.48
2017-09-20T10:00:22.673Z,35.08
2017-09-20T10:01:25.282Z,28.52
2017-09-20T10:02:27.781Z,31.30
2017-09-20T10:03:30.264Z,28.65
2017-09-20T10:04:32.766Z,32.78
2017-09-20T10:05:36.056Z,24.37
2017-09-20T10:06:38.551Z,33.05
2017-09-20T10:07:41.060Z,26.45
2017-09-20T10:08:43.544Z,27.83
2017-09-20T10:09:46.798Z,32.35
2017-09-20T10:10:49.288Z,23.35
2017-09-20T10:11:52.535Z,25.45
2017-09-20T10:12:55.056Z,27.98
2017-09-20T10:13:57.732Z,23.25
2017-09-20T10:15:00.225Z,26.52
2017-09-20T10:16:02.715Z,36.38
2017-09-20T10:17:05.216Z,26.30
2017-09-20T10:18:07.771Z,28.87
2017-09-20T10:19:11.042Z,27.10
2017-09-20T10:20:14.420Z,24.20
2017-09-20T10:21:17.767Z,23.15
2017-09-20T10:22:20.285Z,23.58
2017-09-20T10:23:23.547Z,34.17
2017-09-20T10:24:26.655Z,31.17
2017-09-20T10:25:29.974Z,29.98
2017-09-20T10:26:32.471Z,30.85
2017-09-20T10:27:35.096Z,26.65
2017-09-20T10:28:37.689Z,25.27
2017-09-20T10:29:40.299Z,33.88
2017-09-20T10:30:43.600Z,28.92
2017-09-20T10:31:46.089Z,35.08
2017-09-20T10:32:48.576Z,35.17
2017-09-20T10:33:51.083Z,32.70
2017-09-20T10:34:58.500Z,36.30
2017-09-20T10:36:01.081Z,26.27
2017-09-20T10:37:03.620Z,25.80
2017-09-20T10:38:06.116Z,30.20
2017-09-20T10:39:08.605Z,31.27
2017-09-20T10:40:11.102Z,29.08
2017-09-20T10:41:14.371Z,24.63
2017-09-20T10:42:17.763Z,27.60
2017-09-20T10:43:21.018Z,24.27
2017-09-20T10:44:23.543Z,20.08
2017-09-20T10:45:30.505Z,31.80
2017-09-20T10:46:36.509Z,27.02
2017-09-20T10:47:39.800Z,20.67
2017-09-20T10:48:42.312Z,26.27
2017-09-20T10:49:44.781Z,29.42
2017-09-20T10:50:47.265Z,37.25
2017-09-20T10:51:49.783Z,23.08
2017-09-20T10:52:52.328Z,29.33
2017-09-20T10:53:55.666Z,23.08
2017-09-20T10:54:58.158Z,27.15
2017-09-20T10:56:00.644Z,32.70
2017-09-20T10:57:04.026Z,30.45
2017-09-20T10:58:07.358Z,20.55
2017-09-20T10:59:09.965Z,26.65
2017-09-20T11:00:12.524Z,21.20
2017-09-20T11:01:15.137Z,30.83
2017-09-20T11:02:17.636Z,23.77
2017-09-20T11:03:21.123Z,18.70
2017-09-20T11:04:23.615Z,22.60
2017-09-20T11:05:26.293Z,23.00
2017-09-20T11:06:28.791Z,24.87
2017-09-20T11:07:31.281Z,26.60
2017-09-20T11:08:33.764Z,23.92
2017-09-20T11:09:36.271Z,22.60
2017-09-20T11:10:39.799Z,23.98
2017-09-20T11:11:42.312Z,20.75
2017-09-20T11:12:45.494Z,29.50
2017-09-20T11:13:48.001Z,20.80
2017-09-20T11:14:50.595Z,18.80
2017-09-20T11:15:53.104Z,22.77
2017-09-20T11:16:56.364Z,21.40
2017-09-20T11:17:58.864Z,26.12
2017-09-20T11:19:02.138Z,20.30
2017-09-20T11:20:05.454Z,23.73
2017-09-20T11:21:08.081Z,24.50
2017-09-20T11:22:10.590Z,19.48
2017-09-20T11:23:13.178Z,20.88
2017-09-20T11:24:15.692Z,24.08
2017-09-20T11:25:19.215Z,25.50
2017-09-20T11:26:21.739Z,22.95
2017-09-20T11:27:25.018Z,22.20
2017-09-20T11:28:27.519Z,20.55
2017-09-20T11:29:29.997Z,17.85
2017-09-20T11:30:32.494Z,16.67
2017-09-20T11:31:35.026Z,21.25
2017-09-20T11:32:38.411Z,21.15
2017-09-20T11:33:43.060Z,20.75
2017-09-20T11:34:45.550Z,21.12
2017-09-20T11:35:48.841Z,17.85
2017-09-20T11:36:52.108Z,24.08
2017-09-20T11:37:54.617Z,26.87
2017-09-20T11:38:57.207Z,24.95
2017-09-20T11:39:59.709Z,16.92
2017-09-20T11:41:02.833Z,15.15
2017-09-20T11:42:06.170Z,20.35
2017-09-20T11:43:08.684Z,24.65
2017-09-20T11:44:11.214Z,20.30
2017-09-20T11:45:14.494Z,18.00
2017-09-20T11:46:18.902Z,22.37
2017-09-20T11:47:21.419Z,17.90
2017-09-20T11:48:24.077Z,19.50
2017-09-20T11:49:26.606Z,16.50
2017-09-20T11:50:29.087Z,19.90
2017-09-20T11:51:32.378Z,25.37
2017-09-20T11:52:35.730Z,17.95
2017-09-20T11:53:38.278Z,18.35
2017-09-20T11:54:41.014Z,19.60
2017-09-20T11:55:43.689Z,17.75
2017-09-20T11:56:46.190Z,18.08
2017-09-20T11:57:48.695Z,15.95
2017-09-20T11:58:51.958Z,16.50
2017-09-20T11:59:54.530Z,21.25
2017-09-20T12:00:57.793Z,16.15
2017-09-20T12:02:00.305Z,14.80
2017-09-20T12:03:03.555Z,20.92
2017-09-20T12:04:06.086Z,17.33
2017-09-20T12:05:08.589Z,15.98
2017-09-20T12:06:11.066Z,16.50
2017-09-20T12:07:14.439Z,20.27
2017-09-20T12:08:16.959Z,17.80
2017-09-20T12:09:24.284Z,17.00
2017-09-20T12:10:26.759Z,16.10
2017-09-20T12:11:30.581Z,17.55
2017-09-20T12:12:33.096Z,17.27
2017-09-20T12:13:35.586Z,17.02
2017-09-20T12:14:39.001Z,18.35
2017-09-20T12:15:41.536Z,15.40
2017-09-20T12:16:44.059Z,16.58
2017-09-20T12:17:46.539Z,16.73
2017-09-20T12:18:49.035Z,20.10
2017-09-20T12:19:52.352Z,16.65
2017-09-20T12:20:54.864Z,16.65
2017-09-20T12:21:57.393Z,15.65
2017-09-20T12:22:59.902Z,18.92
2017-09-20T12:24:02.410Z,14.27
2017-09-20T12:25:04.969Z,14.55
2017-09-20T12:26:07.567Z,16.83
2017-09-20T12:27:10.081Z,21.27
2017-09-20T12:28:13.601Z,15.60
2017-09-20T12:29:16.204Z,16.27
2017-09-20T12:30:18.696Z,19.23
2017-09-20T12:31:21.198Z,18.67
2017-09-20T12:32:23.700Z,16.00
2017-09-20T12:33:26.331Z,17.50
2017-09-20T12:34:28.832Z,24.27
2017-09-20T12:35:31.425Z,20.98
2017-09-20T12:36:34.004Z,15.40
2017-09-20T12:37:37.279Z,21.15
2017-09-20T12:38:39.783Z,17.83
2017-09-20T12:39:42.273Z,19.83
2017-09-20T12:40:44.792Z,21.45
2017-09-20T12:41:48.027Z,18.42
2017-09-20T12:42:50.568Z,17.52
2017-09-20T12:43:53.232Z,19.00
2017-09-20T12:44:56.116Z,15.10
2017-09-20T12:45:58.679Z,19.30
2017-09-20T12:47:01.220Z,16.98
2017-09-20T12:48:04.463Z,17.33
2017-09-20T12:49:06.955Z,15.20
2017-09-20T12:50:09.612Z,17.45
2017-09-20T12:51:13.101Z,19.67
2017-09-20T12:52:16.484Z,18.08
2017-09-20T12:53:19.011Z,17.15
2017-09-20T12:54:21.579Z,18.05
2017-09-20T12:55:24.129Z,16.77
2017-09-20T12:56:26.686Z,19.42
2017-09-20T12:57:35.186Z,20.98
2017-09-20T12:58:37.786Z,19.67
2017-09-20T12:59:40.273Z,18.10
2017-09-20T13:00:43.049Z,18.67
2017-09-20T13:01:45.594Z,20.20
2017-09-20T13:02:48.151Z,19.75
2017-09-20T13:03:50.820Z,20.27
2017-09-20T13:04:53.313Z,21.27
2017-09-20T13:05:55.868Z,20.45
2017-09-20T13:06:58.375Z,20.75
2017-09-20T13:08:00.904Z,16.83
2017-09-20T13:09:03.429Z,23.55
2017-09-20T13:10:06.744Z,19.65
2017-09-20T13:11:09.275Z,16.17
2017-09-20T13:12:12.538Z,16.27
2017-09-20T13:13:15.424Z,21.75
2017-09-20T13:14:18.700Z,22.10
2017-09-20T13:15:21.234Z,21.15
2017-09-20T13:16:24.480Z,23.33
2017-09-20T13:17:26.985Z,22.98
2017-09-20T13:18:29.515Z,17.35
2017-09-20T13:19:32.018Z,19.87
2017-09-20T13:20:34.505Z,15.88
2017-09-20T13:21:37.016Z,23.08
2017-09-20T13:22:39.495Z,20.90
2017-09-20T13:23:42.044Z,16.65
2017-09-20T13:24:44.521Z,23.17
2017-09-20T13:25:47.889Z,17.77